Time;durP1;ratioP1;P1;durP2;ratioP2;P2;SDS_P1;SDS_P2;PMS_P1;PMS_P2;Temp;Humidity;BMP_temperature;BMP_pressure;BME280_temperature;BME280_humidity;BME280_pressure;Samples;Min_cycle;Max_cycle;Signal;HPM_P1;HPM_P2
2022/11/17 00:00:33;;;;;;;10.83;5.87;;;;;;;6.73;100.00;98791.22;1551154;92;21191;-73
2022/11/17 00:02:59;;;;;;;15.33;6.13;;;;;;;6.74;100.00;98790.70;1551217;92;21555;-75
2022/11/17 00:05:26;;;;;;;19.23;7.33;;;;;;;6.75;100.00;98783.81;1551102;92;21086;-75
2022/11/17 00:07:54;;;;;;;14.33;6.20;;;;;;;6.77;100.00;98775.58;1580597;90;21078;-75
2022/11/17 00:10:22;;;;;;;14.30;6.43;;;;;;;6.78;100.00;98768.69;1591377;89;21086;-74
2022/11/17 00:15:33;;;;;;;15.23;7.07;;;;;;;6.82;100.00;98765.97;1591460;90;21019;-75
2022/11/17 00:23:47;;;;;;;12.77;6.37;;;;;;;6.85;100.00;98760.73;1680864;84;21009;-74
2022/11/17 00:26:19;;;;;;;20.37;10.50;;;;;;;6.88;100.00;98758.21;1681217;85;21056;-75
2022/11/17 00:28:45;;;;;;;17.90;8.40;;;;;;;6.89;100.00;98754.49;1682929;85;20999;-74
2022/11/17 00:34:05;;;;;;;19.07;9.80;;;;;;;6.92;100.00;98767.06;1682928;85;21051;-75
2022/11/17 00:36:40;;;;;;;25.73;9.93;;;;;;;6.97;100.00;98765.19;1678375;85;21162;-73
2022/11/17 00:39:08;;;;;;;25.87;9.87;;;;;;;7.01;100.00;98763.81;1677777;85;21015;-75
2022/11/17 00:41:35;;;;;;;22.23;8.80;;;;;;;7.03;100.00;98761.80;1677636;85;21106;-75
2022/11/17 00:44:02;;;;;;;22.63;9.17;;;;;;;7.05;100.00;98762.45;1677571;85;21071;-75
2022/11/17 00:46:31;;;;;;;20.30;8.27;;;;;;;7.07;100.00;98765.80;1677623;85;21055;-74
2022/11/17 00:48:58;;;;;;;18.13;8.47;;;;;;;7.10;100.00;98762.76;1677571;85;21027;-75
2022/11/17 00:51:25;;;;;;;20.60;8.83;;;;;;;7.11;100.00;98760.38;1677571;85;21055;-74
2022/11/17 00:53:52;;;;;;;14.97;6.67;;;;;;;7.13;100.00;98762.38;1677390;85;21063;-74
2022/11/17 00:56:20;;;;;;;13.23;6.00;;;;;;;7.14;100.00;98764.58;1677662;85;21082;-74
2022/11/17 00:58:46;;;;;;;15.00;6.97;;;;;;;7.14;100.00;98760.03;1677564;85;21039;-74
2022/11/17 01:01:13;;;;;;;13.17;6.50;;;;;;;7.14;100.00;98764.58;1677588;85;21003;-74
2022/11/17 01:03:39;;;;;;;12.07;6.27;;;;;;;7.16;100.00;98764.71;1677494;85;21044;-73
2022/11/17 01:06:09;;;;;;;14.27;6.53;;;;;;;7.17;100.00;98762.36;1677764;85;21496;-74
2022/11/17 01:08:36;;;;;;;14.57;6.70;;;;;;;7.19;100.00;98763.02;1677646;85;21591;-73
2022/11/17 01:11:13;;;;;;;13.73;6.50;;;;;;;7.21;100.00;98764.18;1677595;85;21097;-73
2022/11/17 01:13:41;;;;;;;14.70;6.40;;;;;;;7.22;100.00;98759.11;1635623;88;21579;-74
2022/11/17 01:16:10;;;;;;;14.63;6.70;;;;;;;7.24;100.00;98747.66;1635923;88;21019;-73
2022/11/17 01:18:38;;;;;;;13.17;6.30;;;;;;;7.25;100.00;98755.24;1635730;88;21027;-74
2022/11/17 01:21:12;;;;;;;14.87;6.43;;;;;;;7.23;100.00;98746.84;1636060;88;21054;-73
2022/11/17 01:23:40;;;;;;;14.67;6.93;;;;;;;7.24;100.00;98750.35;1583171;91;21487;-74
2022/11/17 01:26:14;;;;;;;12.33;6.33;;;;;;;7.25;100.00;98740.45;1566751;91;21080;-74
2022/11/17 01:28:42;;;;;;;16.93;6.90;;;;;;;7.23;100.00;98743.32;1568019;91;21092;-73
2022/11/17 01:31:17;;;;;;;13.00;6.07;;;;;;;7.26;100.00;98744.80;1568424;91;21086;-73
2022/11/17 01:33:44;;;;;;;13.00;6.43;;;;;;;7.26;100.00;98744.80;1568101;91;21096;-74
2022/11/17 01:36:15;;;;;;;13.13;6.43;;;;;;;7.26;100.00;98751.52;1568474;89;21088;-74
2022/11/17 01:38:44;;;;;;;14.20;6.10;;;;;;;7.27;100.00;98735.73;1568830;91;21557;-72
2022/11/17 01:41:23;;;;;;;13.33;6.20;;;;;;;7.30;100.00;98740.23;1568991;91;21116;-73
2022/11/17 01:43:56;;;;;;;14.70;6.80;;;;;;;7.32;100.00;98736.84;1493355;96;21618;-74
2022/11/17 01:46:33;;;;;;;14.23;6.87;;;;;;;7.34;100.00;98734.81;1493934;96;21070;-74
2022/11/17 01:49:08;;;;;;;16.90;7.27;;;;;;;7.37;100.00;98728.25;1493563;96;21151;-74
2022/11/17 01:51:37;;;;;;;12.97;6.23;;;;;;;7.38;100.00;98729.90;1493383;96;21596;-74
2022/11/17 01:54:03;;;;;;;14.63;6.87;;;;;;;7.37;100.00;98722.34;1493472;96;21118;-71
2022/11/17 01:56:37;;;;;;;13.53;6.43;;;;;;;7.39;100.00;98727.55;1493396;96;21121;-74
2022/11/17 01:59:30;;;;;;;14.95;6.30;;;;;;;7.39;100.00;98727.03;1493644;96;21126;-74
2022/11/17 02:01:57;;;;;;;12.98;6.20;;;;;;;7.41;100.00;98725.52;1470863;98;21088;-74
2022/11/17 02:04:37;;;;;;;12.33;6.13;;;;;;;7.43;100.00;98725.33;1470650;98;21108;-74
2022/11/17 02:07:24;;;;;;;14.30;6.73;;;;;;;7.44;100.00;98726.50;1470524;97;21136;-74
2022/11/17 02:09:52;;;;;;;10.93;5.77;;;;;;;7.45;100.00;98722.77;1428072;100;21122;-74
2022/11/17 02:12:19;;;;;;;12.47;6.10;;;;;;;7.47;100.00;98726.14;1434007;100;21620;-75
2022/11/17 02:14:49;;;;;;;11.53;5.63;;;;;;;7.47;100.00;98724.80;1433959;98;21198;-74
2022/11/17 02:17:16;;;;;;;15.87;6.23;;;;;;;7.48;100.00;98727.80;1433951;100;21071;-74
2022/11/17 02:19:44;;;;;;;14.30;6.20;;;;;;;7.49;100.00;98725.92;1441719;97;21631;-74
2022/11/17 07:10:06;;;;;;;27.80;12.57;;;;;;;6.96;100.00;99348.09;1781074;80;23492;-75
2022/11/17 07:12:34;;;;;;;24.27;10.03;;;;;;;6.98;100.00;99141.29;1785187;80;21031;-73
2022/11/17 07:15:05;;;;;;;30.63;13.60;;;;;;;7.01;100.00;99132.89;1779939;80;20996;-74
2022/11/17 11:22:27;;;;;;;13.67;5.77;;;;;;;6.66;100.00;99128.73;1697551;83;21021;-77
2022/11/17 11:25:06;;;;;;;13.07;6.73;;;;;;;6.57;100.00;99106.88;1702185;84;21535;-78
2022/11/17 11:28:15;;;;;;;12.53;6.30;;;;;;;6.53;100.00;99119.80;1672017;84;21024;-79
2022/11/17 11:31:18;;;;;;;24.83;10.30;;;;;;;6.50;100.00;99113.93;1685280;84;21484;-80
2022/11/17 11:34:19;;;;;;;25.27;11.67;;;;;;;6.44;100.00;99108.22;1689811;84;21041;-75
2022/11/17 11:37:08;;;;;;;19.30;9.07;;;;;;;6.38;100.00;99094.13;1683981;84;20976;-79
2022/11/17 11:39:56;;;;;;;21.87;9.97;;;;;;;6.33;100.00;99082.22;1631656;87;21059;-78
2022/11/17 11:43:01;;;;;;;24.33;10.27;;;;;;;6.29;100.00;99076.34;1627538;88;21037;-76
2022/11/17 11:46:06;;;;;;;21.87;9.80;;;;;;;6.30;100.00;99085.23;1639010;87;21064;-74
2022/11/17 11:48:33;;;;;;;21.03;8.90;;;;;;;6.30;100.00;99070.47;1626003;87;21049;-76
2022/11/17 11:51:15;;;;;;;21.70;9.67;;;;;;;6.26;100.00;99071.30;1614223;87;21547;-72
2022/11/17 11:53:57;;;;;;;25.80;10.93;;;;;;;6.24;100.00;99074.15;1605315;88;21605;-76
2022/11/17 11:56:37;;;;;;;18.47;9.53;;;;;;;6.20;100.00;99062.59;1601711;89;21525;-76
2022/11/17 11:59:27;;;;;;;23.73;10.37;;;;;;;6.15;100.00;99057.70;1537142;91;21047;-77
2022/11/17 12:02:14;;;;;;;19.23;8.90;;;;;;;6.11;100.00;99056.37;1558610;91;21097;-75
2022/11/17 12:05:11;;;;;;;20.13;9.60;;;;;;;6.12;100.00;99063.91;1563602;91;21514;-75
2022/11/17 12:07:58;;;;;;;22.60;9.63;;;;;;;6.12;100.00;99066.09;1564618;91;21167;-76
2022/11/17 12:10:51;;;;;;;17.93;8.17;;;;;;;6.09;100.00;99067.75;1589415;89;21010;-73
2022/11/17 12:13:18;;;;;;;15.43;7.08;;;;;;;6.06;100.00;99057.38;1585638;89;21042;-75
2022/11/17 12:15:45;;;;;;;16.97;8.00;;;;;;;6.02;100.00;99047.47;1578691;89;21050;-78
2022/11/17 12:18:23;;;;;;;13.33;6.73;;;;;;;6.05;100.00;99053.00;1578292;89;21734;-73
2022/11/17 12:21:10;;;;;;;11.20;5.73;;;;;;;6.06;100.00;99054.69;1577674;90;21115;-74
2022/11/17 12:24:05;;;;;;;16.43;9.97;;;;;;;6.04;100.00;99055.36;1577716;90;21131;-76
2022/11/17 12:26:32;;;;;;;13.60;7.67;;;;;;;6.05;100.00;99048.45;1615934;89;21101;-73
2022/11/17 12:29:24;;;;;;;12.17;7.00;;;;;;;6.00;100.00;99028.50;1616207;89;21073;-75
2022/11/17 12:31:58;;;;;;;8.93;6.30;;;;;;;5.97;100.00;99037.73;1561713;91;21099;-77
2022/11/17 12:34:35;;;;;;;11.37;6.17;;;;;;;5.90;100.00;99036.18;1510226;95;21119;-74
2022/11/17 12:37:18;;;;;;;42.70;19.27;;;;;;;5.86;100.00;99039.34;1520324;94;21055;-74
2022/11/17 12:40:04;;;;;;;13.60;7.05;;;;;;;5.80;100.00;99040.84;1542977;93;21035;-76
2022/11/17 12:42:32;;;;;;;15.57;7.90;;;;;;;5.71;100.00;99048.04;1505943;94;21176;-76
2022/11/17 12:45:03;;;;;;;16.97;8.40;;;;;;;5.65;100.00;99057.27;1492704;96;21126;-74
2022/11/17 12:47:33;;;;;;;15.77;8.10;;;;;;;5.63;100.00;99060.59;1513989;95;21118;-76
2022/11/17 12:50:09;;;;;;;19.13;8.90;;;;;;;5.57;100.00;99062.08;1513875;95;21094;-74
2022/11/17 12:52:54;;;;;;;15.03;7.47;;;;;;;5.50;100.00;99053.84;1513676;95;21167;-73
2022/11/17 12:55:35;;;;;;;18.87;8.77;;;;;;;5.46;100.00;99055.18;1513980;95;21652;-76
2022/11/17 12:58:23;;;;;;;17.20;8.73;;;;;;;5.42;100.00;99050.30;1515264;95;21125;-74
2022/11/17 13:01:13;;;;;;;35.97;17.00;;;;;;;5.35;100.00;99043.42;1515075;95;21098;-75
2022/11/17 13:04:05;;;;;;;52.60;32.57;;;;;;;5.23;100.00;99039.35;1506570;94;21069;-76
2022/11/17 13:06:33;;;;;;;21.50;12.78;;;;;;;5.14;100.00;99030.44;1478821;97;21119;-75
2022/11/17 13:09:11;;;;;;;21.93;14.43;;;;;;;5.07;100.00;99033.42;1519820;93;21070;-76
2022/11/17 13:11:37;;;;;;;16.77;8.50;;;;;;;5.00;100.00;99033.72;1511691;95;21085;-74
2022/11/17 13:14:13;;;;;;;19.63;9.53;;;;;;;4.93;100.00;99024.97;1523786;93;21183;-74
2022/11/17 13:16:49;;;;;;;15.20;7.10;;;;;;;4.89;100.00;99020.11;1511165;95;21098;-75
2022/11/17 13:19:35;;;;;;;13.70;6.50;;;;;;;4.88;100.00;99023.77;1535111;93;21110;-74
2022/11/17 13:22:14;;;;;;;40.63;15.37;;;;;;;4.87;100.00;99018.92;1538875;91;21077;-74
2022/11/17 13:24:45;;;;;;;21.93;8.57;;;;;;;4.89;100.00;99014.75;1554897;92;21132;-75
2022/11/17 13:27:25;;;;;;;16.60;7.83;;;;;;;4.89;100.00;99025.47;1521973;94;21122;-75
2022/11/17 13:30:12;;;;;;;20.50;9.30;;;;;;;4.91;100.00;99027.48;1522261;94;21155;-75
2022/11/17 13:32:41;;;;;;;20.03;10.17;;;;;;;4.92;100.00;99030.00;1523951;93;21155;-74
2022/11/17 13:35:27;;;;;;;15.37;8.20;;;;;;;4.87;100.00;99020.74;1533732;89;21174;-73
2022/11/17 13:38:13;;;;;;;20.60;8.73;;;;;;;4.83;100.00;99020.22;1608904;87;21110;-71
2022/11/17 13:40:41;;;;;;;18.23;8.17;;;;;;;4.79;100.00;99007.33;1635060;87;21122;-71
2022/11/17 13:43:12;;;;;;;13.50;6.30;;;;;;;4.77;100.00;99000.78;1633258;87;21129;-73
2022/11/17 13:45:42;;;;;;;12.60;6.07;;;;;;;4.76;100.00;99004.45;1597381;90;21562;-72
2022/11/17 13:48:33;;;;;;;12.20;6.17;;;;;;;4.74;100.00;98997.91;1577565;91;21052;-72
2022/11/17 13:51:22;;;;;;;20.10;7.40;;;;;;;4.73;100.00;99000.27;1578770;89;21464;-73
2022/11/17 13:54:05;;;;;;;10.40;5.40;;;;;;;4.74;100.00;98990.38;1577701;87;21069;-73
2022/11/17 13:56:38;;;;;;;29.87;10.40;;;;;;;4.74;100.00;98989.05;1590670;90;21065;-76
2022/11/17 13:59:18;;;;;;;17.87;7.65;;;;;;;4.74;100.00;98983.69;1590616;90;21065;-75
2022/11/17 14:01:45;;;;;;;8.73;4.90;;;;;;;4.72;100.00;98985.69;1591000;90;21105;-76
2022/11/17 14:04:21;;;;;;;10.10;5.07;;;;;;;4.70;100.00;98990.38;1591129;90;21670;-75
2022/11/17 14:06:59;;;;;;;7.83;4.70;;;;;;;4.68;100.00;98992.38;1591104;90;21591;-75
2022/11/17 14:09:29;;;;;;;15.37;6.87;;;;;;;4.69;100.00;98994.03;1592167;90;21021;-75
2022/11/17 14:12:00;;;;;;;23.73;9.40;;;;;;;4.71;100.00;98994.23;1592165;90;21081;-74
2022/11/17 14:14:40;;;;;;;21.07;9.87;;;;;;;4.72;100.00;98997.74;1591980;90;21089;-73
2022/11/17 14:17:20;;;;;;;21.57;9.97;;;;;;;4.72;100.00;98998.58;1589600;90;21104;-75
2022/11/17 14:19:48;;;;;;;22.07;9.63;;;;;;;4.72;100.00;98997.23;1592580;90;21518;-74
2022/11/17 14:22:22;;;;;;;15.60;7.50;;;;;;;4.70;100.00;99000.58;1594439;90;21513;-75
2022/11/17 14:24:50;;;;;;;17.30;8.20;;;;;;;4.69;100.00;98998.91;1613447;89;21109;-74
2022/11/17 14:27:33;;;;;;;15.17;6.67;;;;;;;4.69;100.00;99007.42;1609731;89;21045;-74
2022/11/17 14:30:00;;;;;;;20.35;7.70;;;;;;;4.67;100.00;99003.56;1637287;88;21038;-75
2022/11/17 14:32:27;;;;;;;20.63;8.10;;;;;;;4.68;100.00;99003.09;1609523;89;21129;-76
2022/11/17 14:34:54;;;;;;;20.43;10.93;;;;;;;4.67;100.00;99003.56;1602752;88;21128;-75
2022/11/17 14:37:21;;;;;;;20.07;10.60;;;;;;;4.70;100.00;99003.25;1576099;91;21499;-75
2022/11/17 14:39:49;;;;;;;16.47;7.73;;;;;;;4.70;100.00;99004.59;1593768;90;21093;-75
2022/11/17 14:42:16;;;;;;;12.13;6.53;;;;;;;4.65;100.00;98998.04;1614186;87;21112;-76
2022/11/17 14:44:45;;;;;;;8.83;4.50;;;;;;;4.62;100.00;98999.69;1643488;87;21072;-76
2022/11/17 14:47:13;;;;;;;15.57;7.40;;;;;;;4.61;100.00;98989.48;1643008;87;21033;-73
2022/11/17 14:49:40;;;;;;;11.90;5.60;;;;;;;4.61;100.00;98992.67;1643047;87;21113;-74
2022/11/17 14:52:08;;;;;;;9.53;5.10;;;;;;;4.61;100.00;98987.31;1653482;86;21090;-74
2022/11/17 14:54:34;;;;;;;10.70;4.43;;;;;;;4.55;100.00;98986.08;1673153;85;21048;-74
2022/11/17 14:57:03;;;;;;;12.03;5.80;;;;;;;4.45;100.00;98973.33;1680424;85;21040;-72
2022/11/17 14:59:29;;;;;;;6.80;4.13;;;;;;;4.39;100.00;98978.79;1680567;85;21036;-72
2022/11/17 15:01:56;;;;;;;9.80;4.67;;;;;;;4.38;100.00;98967.26;1680249;84;21092;-72
2022/11/17 15:04:25;;;;;;;11.33;5.33;;;;;;;4.36;100.00;98965.75;1680388;85;21121;-72
2022/11/17 15:06:52;;;;;;;11.23;5.77;;;;;;;4.37;100.00;98966.07;1679909;85;21119;-74
2022/11/17 15:09:19;;;;;;;11.00;5.23;;;;;;;4.35;100.00;98962.72;1657678;84;21011;-73
2022/11/17 15:11:47;;;;;;;7.20;4.33;;;;;;;4.31;100.00;98958.17;1650896;86;21520;-72
2022/11/17 15:14:13;;;;;;;4.93;3.30;;;;;;;4.29;100.00;98957.50;1651096;87;21042;-72
2022/11/17 15:16:40;;;;;;;6.27;3.50;;;;;;;4.32;100.00;98959.01;1650988;87;21094;-74
2022/11/17 15:19:07;;;;;;;5.50;3.40;;;;;;;4.30;100.00;98963.69;1649779;85;21115;-75
2022/11/17 15:21:34;;;;;;;4.20;3.03;;;;;;;4.26;100.00;98967.68;1677700;83;21070;-75
2022/11/17 15:24:02;;;;;;;6.57;3.23;;;;;;;4.23;100.00;98967.48;1701410;84;21453;-75
2022/11/17 15:26:30;;;;;;;6.03;3.40;;;;;;;4.24;100.00;98969.68;1703261;83;21031;-75
2022/11/17 15:28:57;;;;;;;6.03;3.47;;;;;;;4.21;100.00;98971.32;1694601;83;21030;-74
2022/11/17 15:31:23;;;;;;;8.10;3.53;;;;;;;4.21;100.00;98968.14;1697255;84;20997;-75
2022/11/17 15:33:50;;;;;;;6.97;3.23;;;;;;;4.19;100.00;98962.11;1686610;85;21014;-76
2022/11/17 15:36:19;;;;;;;8.10;3.83;;;;;;;4.13;100.00;98958.23;1695878;85;21030;-75
2022/11/17 15:38:46;;;;;;;6.33;2.90;;;;;;;4.10;100.00;98951.02;1701628;83;21030;-75
2022/11/17 15:41:15;;;;;;;2.87;2.67;;;;;;;4.06;100.00;98952.33;1698819;83;21014;-75
2022/11/17 15:43:45;;;;;;;5.77;3.43;;;;;;;4.00;100.00;98945.74;1698888;84;21034;-76
2022/11/17 15:46:14;;;;;;;3.30;2.83;;;;;;;4.01;100.00;98949.28;1699101;84;21002;-74
2022/11/17 15:48:42;;;;;;;5.03;2.90;;;;;;;3.99;100.00;98938.73;1698792;83;21102;-77
2022/11/17 15:51:12;;;;;;;12.13;4.17;;;;;;;4.02;100.00;98937.56;1699035;84;20998;-77
2022/11/17 15:53:43;;;;;;;29.97;9.00;;;;;;;3.98;100.00;98936.56;1658414;86;21007;-75
2022/11/17 15:56:16;;;;;;;33.03;12.50;;;;;;;3.97;100.00;98940.73;1658468;86;21027;-73
2022/11/17 15:58:43;;;;;;;13.83;6.83;;;;;;;3.98;100.00;98933.89;1657722;86;21133;-77
2022/11/17 16:01:16;;;;;;;15.60;6.63;;;;;;;3.96;100.00;98927.00;1658207;86;21099;-73
2022/11/17 16:03:44;;;;;;;8.30;3.63;;;;;;;3.95;100.00;98932.86;1648877;86;21077;-77
2022/11/17 16:06:11;;;;;;;21.43;6.50;;;;;;;3.89;100.00;98932.63;1651864;87;21054;-75
2022/11/17 16:08:38;;;;;;;16.40;6.30;;;;;;;3.80;100.00;98928.55;1651405;87;21126;-76
2022/11/17 16:11:06;;;;;;;9.43;4.67;;;;;;;3.79;100.00;98930.06;1651725;87;21122;-75
2022/11/17 16:13:33;;;;;;;5.53;3.47;;;;;;;3.79;100.00;98924.20;1651725;87;21141;-75
2022/11/17 16:16:00;;;;;;;11.63;5.33;;;;;;;3.79;100.00;98917.52;1651236;87;21114;-75
2022/11/17 16:18:27;;;;;;;12.73;6.17;;;;;;;3.75;100.00;98911.30;1650211;87;21006;-75
2022/11/17 16:20:54;;;;;;;7.83;4.17;;;;;;;3.73;100.00;98909.27;1650054;87;21181;-75
2022/11/17 16:23:21;;;;;;;12.70;5.37;;;;;;;3.70;100.00;98905.09;1620995;85;21133;-75
2022/11/17 16:25:48;;;;;;;41.93;13.97;;;;;;;3.69;100.00;98896.72;1620216;88;21105;-75
2022/11/17 16:28:15;;;;;;;35.53;12.27;;;;;;;3.69;100.00;98895.37;1620553;88;21073;-76
2022/11/17 16:30:43;;;;;;;12.83;6.13;;;;;;;3.69;100.00;98891.38;1620666;88;21110;-76
2022/11/17 16:33:11;;;;;;;10.90;5.40;;;;;;;3.68;100.00;98883.50;1621715;88;21022;-75
2022/11/17 16:35:40;;;;;;;9.67;4.30;;;;;;;3.63;100.00;98886.66;1621603;88;21058;-76
2022/11/17 16:38:09;;;;;;;9.00;4.70;;;;;;;3.61;100.00;98886.80;1621847;88;21046;-74
2022/11/17 16:40:38;;;;;;;5.60;3.50;;;;;;;3.58;100.00;98878.26;1599764;88;21112;-74
2022/11/17 16:43:05;;;;;;;4.23;3.20;;;;;;;3.53;100.00;98876.55;1621772;88;21015;-75
2022/11/17 16:45:46;;;;;;;4.13;2.90;;;;;;;3.46;100.00;98874.15;1622051;88;21495;-74
2022/11/17 16:48:12;;;;;;;5.10;3.00;;;;;;;3.44;100.00;98864.11;1621808;88;21105;-74
2022/11/17 16:50:41;;;;;;;5.77;3.10;;;;;;;3.37;100.00;98858.03;1663374;85;21042;-74
2022/11/17 16:53:09;;;;;;;4.17;2.97;;;;;;;3.32;100.00;98856.31;1687168;85;21034;-76
2022/11/17 16:55:37;;;;;;;4.23;2.90;;;;;;;3.30;100.00;98861.48;1634708;88;21062;-75
2022/11/17 16:58:05;;;;;;;4.83;2.87;;;;;;;3.27;100.00;98853.77;1634557;88;21075;-75
2022/11/17 17:00:36;;;;;;;5.03;3.20;;;;;;;3.23;100.00;98850.56;1634972;88;21544;-74
2022/11/17 17:03:03;;;;;;;5.83;3.03;;;;;;;3.19;100.00;98846.02;1634938;88;21050;-74
2022/11/17 17:05:29;;;;;;;4.37;2.70;;;;;;;3.15;100.00;98854.01;1634783;88;21042;-74
2022/11/17 17:07:57;;;;;;;8.50;3.30;;;;;;;3.12;100.00;98849.47;1634878;88;21065;-73
2022/11/17 17:10:23;;;;;;;7.37;3.10;;;;;;;3.07;100.00;98837.06;1634738;88;21110;-74
2022/11/17 17:12:52;;;;;;;5.37;3.10;;;;;;;3.06;100.00;98834.87;1634723;88;21110;-73
2022/11/17 17:15:18;;;;;;;4.30;2.77;;;;;;;3.05;100.00;98838.55;1634821;88;21105;-73
2022/11/17 17:17:46;;;;;;;4.70;2.73;;;;;;;3.01;100.00;98836.67;1634597;86;21445;-74
2022/11/17 17:20:13;;;;;;;2.40;2.13;;;;;;;3.01;100.00;98841.16;1634505;88;21043;-73
2022/11/17 17:22:40;;;;;;;4.93;2.70;;;;;;;2.96;100.00;98837.63;1652304;85;21070;-73
2022/11/17 17:25:09;;;;;;;2.93;2.40;;;;;;;2.95;100.00;98830.59;1726209;83;21052;-72
2022/11/17 17:27:37;;;;;;;4.50;2.87;;;;;;;2.94;100.00;98829.41;1726373;83;21033;-72
2022/11/17 17:30:07;;;;;;;3.63;2.90;;;;;;;2.90;100.00;98822.70;1726286;83;21467;-73
2022/11/17 17:32:36;;;;;;;4.63;2.53;;;;;;;2.88;100.00;98826.85;1727366;83;21077;-72
2022/11/17 17:35:03;;;;;;;4.93;2.60;;;;;;;2.86;100.00;98823.50;1727339;83;21514;-73
2022/11/17 17:37:32;;;;;;;4.30;2.40;;;;;;;2.85;100.00;98815.13;1726397;83;21037;-73
2022/11/17 17:39:58;;;;;;;3.17;2.47;;;;;;;2.84;100.00;98820.15;1726035;82;21492;-72
2022/11/17 17:42:27;;;;;;;2.93;2.30;;;;;;;2.80;100.00;98811.60;1726407;83;20990;-75
2022/11/17 17:44:54;;;;;;;4.23;2.30;;;;;;;2.76;100.00;98807.56;1698052;83;21041;-74
2022/11/17 17:47:23;;;;;;;4.13;2.20;;;;;;;2.66;100.00;98788.94;1726402;83;21005;-74
2022/11/17 17:49:49;;;;;;;2.30;2.10;;;;;;;2.61;100.00;98787.72;1726311;82;21081;-74
2022/11/17 17:52:16;;;;;;;3.87;2.20;;;;;;;2.59;100.00;98779.86;1726265;83;21084;-74
2022/11/17 17:54:43;;;;;;;2.30;2.07;;;;;;;2.56;100.00;98786.82;1749833;82;21042;-73
2022/11/17 17:57:10;;;;;;;5.50;2.63;;;;;;;2.50;100.00;98775.43;1743918;82;21058;-75
2022/11/17 17:59:38;;;;;;;2.83;2.50;;;;;;;2.46;100.00;98770.89;1734924;83;21049;-72
2022/11/17 18:02:05;;;;;;;4.27;2.40;;;;;;;2.46;100.00;98764.69;1756346;82;21037;-74
2022/11/17 18:04:31;;;;;;;3.63;2.30;;;;;;;2.44;100.00;98764.87;1743671;82;21054;-73
2022/11/17 18:07:00;;;;;;;4.20;2.20;;;;;;;2.44;100.00;98769.34;1724476;83;21105;-72
2022/11/17 18:09:27;;;;;;;2.73;2.03;;;;;;;2.43;100.00;98768.52;1755822;82;21507;-75
2022/11/17 18:11:53;;;;;;;3.73;2.30;;;;;;;2.40;100.00;98775.98;1756151;82;21435;-74
2022/11/17 18:14:22;;;;;;;4.73;3.13;;;;;;;2.34;100.00;98768.55;1755819;81;21069;-73
2022/11/17 18:16:49;;;;;;;5.77;2.80;;;;;;;2.31;100.00;98767.55;1756017;82;21045;-74
2022/11/17 18:19:17;;;;;;;2.67;2.43;;;;;;;2.30;100.00;98760.02;1755759;82;21002;-74
2022/11/17 18:21:43;;;;;;;4.17;2.90;;;;;;;2.30;100.00;98759.19;1755047;81;21030;-73
2022/11/17 18:24:11;;;;;;;3.87;2.33;;;;;;;2.27;100.00;98757.67;1745735;82;21050;-73
2022/11/17 18:26:39;;;;;;;3.23;2.40;;;;;;;2.25;100.00;98759.15;1745765;82;21058;-74
2022/11/17 18:29:12;;;;;;;3.57;2.30;;;;;;;2.26;100.00;98750.14;1745649;82;21031;-73
2022/11/17 18:31:39;;;;;;;5.85;2.80;;;;;;;2.21;100.00;98739.58;1691532;85;21036;-74
2022/11/17 18:34:13;;;;;;;72.50;25.37;;;;;;;2.18;100.00;98740.73;1691570;85;21007;-73
2022/11/17 18:36:40;;;;;;;6.07;3.40;;;;;;;2.19;100.00;98742.39;1562606;92;21058;-73
2022/11/17 18:39:07;;;;;;;3.13;2.60;;;;;;;2.20;100.00;98732.08;1562814;91;21447;-74
2022/11/17 18:41:35;;;;;;;7.17;3.20;;;;;;;2.17;100.00;98728.37;1585639;90;21083;-73
2022/11/17 22:07:43;;;;;;;3.87;2.87;;;;;;;0.58;100.00;98610.72;1647367;86;21098;-75
2022/11/17 22:10:11;;;;;;;3.63;2.93;;;;;;;0.55;100.00;98597.73;1640011;87;21082;-74
2022/11/17 22:12:38;;;;;;;5.67;3.33;;;;;;;0.52;100.00;98597.50;1640092;87;21098;-74
2022/11/17 22:15:07;;;;;;;4.40;3.20;;;;;;;0.49;100.00;98607.09;1640590;87;20985;-75
2022/11/17 22:17:36;;;;;;;3.97;3.10;;;;;;;0.48;100.00;98617.40;1640200;87;21046;-72
2022/11/17 22:20:03;;;;;;;6.37;3.10;;;;;;;0.48;100.00;98612.08;1640136;87;21027;-74
2022/11/17 22:22:30;;;;;;;4.17;3.00;;;;;;;0.48;100.00;98605.43;1640207;87;21054;-74
2022/11/17 22:24:57;;;;;;;3.87;3.00;;;;;;;0.50;100.00;98610.61;1639958;87;21050;-74
2022/11/17 22:27:25;;;;;;;4.97;2.90;;;;;;;0.51;100.00;98604.30;1640285;87;21018;-74
2022/11/17 22:29:52;;;;;;;4.27;3.30;;;;;;;0.51;100.00;98594.52;1639809;87;21062;-75
2022/11/17 22:32:19;;;;;;;4.53;3.20;;;;;;;0.52;100.00;98608.14;1639946;87;21547;-75
2022/11/17 22:34:47;;;;;;;3.73;3.03;;;;;;;0.54;100.00;98622.64;1640389;87;21576;-75
2022/11/17 22:37:14;;;;;;;4.80;3.40;;;;;;;0.54;100.00;98618.14;1644823;87;21062;-74
2022/11/17 22:39:41;;;;;;;7.03;3.83;;;;;;;0.55;100.00;98617.17;1639923;86;21154;-75
2022/11/17 22:42:07;;;;;;;4.87;3.63;;;;;;;0.53;100.00;98619.61;1640265;87;21047;-74
2022/11/17 22:44:36;;;;;;;5.30;3.47;;;;;;;0.50;100.00;98626.07;1640115;87;21106;-74
2022/11/17 22:47:04;;;;;;;6.40;4.10;;;;;;;0.46;100.00;98631.33;1639770;87;21062;-74
2022/11/17 22:49:30;;;;;;;7.63;4.30;;;;;;;0.44;100.00;98633.27;1640180;87;20998;-74
2022/11/17 22:52:05;;;;;;;9.00;4.40;;;;;;;0.43;100.00;98622.80;1639851;87;21054;-74
2022/11/17 22:54:33;;;;;;;7.10;4.00;;;;;;;0.40;100.00;98619.08;1640237;87;21006;-73
2022/11/17 22:57:01;;;;;;;5.40;4.10;;;;;;;0.35;100.00;98620.82;1640451;87;21062;-73
2022/11/17 22:59:28;;;;;;;7.33;4.33;;;;;;;0.30;100.00;98625.25;1640101;87;21035;-74
2022/11/17 23:01:57;;;;;;;8.07;4.50;;;;;;;0.29;100.00;98621.41;1640168;87;21070;-74
2022/11/17 23:04:23;;;;;;;7.67;4.23;;;;;;;0.24;100.00;98631.11;1640245;87;21070;-73
2022/11/17 23:06:52;;;;;;;8.87;4.80;;;;;;;0.22;100.00;98633.08;1639884;87;21046;-75
2022/11/17 23:09:18;;;;;;;7.87;4.77;;;;;;;0.21;100.00;98643.34;1657145;86;21082;-75
2022/11/17 23:11:46;;;;;;;6.63;4.40;;;;;;;0.18;100.00;98643.65;1661576;86;21034;-74
2022/11/17 23:14:13;;;;;;;8.40;4.37;;;;;;;0.14;100.00;98647.08;1661645;86;21500;-74
2022/11/17 23:16:40;;;;;;;6.90;4.27;;;;;;;0.12;100.00;98656.15;1661722;86;21484;-75
2022/11/17 23:19:09;;;;;;;7.57;4.50;;;;;;;0.10;100.00;98666.91;1661760;86;21046;-74
2022/11/17 23:21:35;;;;;;;9.20;4.53;;;;;;;0.08;100.00;98668.88;1661376;86;21054;-74
2022/11/17 23:24:03;;;;;;;7.87;4.73;;;;;;;0.07;100.00;98673.00;1661408;86;21098;-75
2022/11/17 23:26:30;;;;;;;9.33;4.90;;;;;;;0.07;100.00;98684.95;1661566;86;20991;-74
2022/11/17 23:28:57;;;;;;;9.53;4.80;;;;;;;0.05;100.00;98672.30;1661636;86;21062;-75
2022/11/17 23:31:26;;;;;;;8.73;4.80;;;;;;;0.04;100.00;98670.64;1661384;86;21112;-73
2022/11/17 23:33:53;;;;;;;10.70;5.40;;;;;;;0.03;100.00;98676.42;1661555;86;21519;-74
2022/11/17 23:36:22;;;;;;;7.43;4.50;;;;;;;0.03;100.00;98681.73;1661627;86;21054;-75
2022/11/17 23:38:49;;;;;;;6.73;4.30;;;;;;;0.01;100.00;98667.75;1661587;86;21082;-73
2022/11/17 23:41:18;;;;;;;10.43;5.07;;;;;;;-0.03;100.00;98673.83;1661692;86;21062;-75
2022/11/17 23:43:45;;;;;;;7.63;4.47;;;;;;;-0.04;100.00;98677.45;1661690;86;21527;-75
2022/11/17 23:46:14;;;;;;;7.87;5.07;;;;;;;-0.08;100.00;98694.66;1661698;86;21061;-74
2022/11/17 23:48:41;;;;;;;10.27;5.70;;;;;;;-0.09;100.00;98719.56;1661733;86;21535;-74
2022/11/17 23:51:14;;;;;;;9.93;5.03;;;;;;;-0.12;100.00;98731.78;1661426;86;21062;-75
2022/11/17 23:53:40;;;;;;;10.55;5.70;;;;;;;-0.16;100.00;98751.64;1662026;86;20994;-74
2022/11/17 23:56:08;;;;;;;10.90;5.63;;;;;;;-0.20;100.00;98753.69;1661588;86;21516;-73
2022/11/17 23:58:38;;;;;;;10.77;5.17;;;;;;;-0.23;100.00;98750.00;1661412;86;21054;-74
